Time;durP1;ratioP1;P1;durP2;ratioP2;P2;SDS_P1;SDS_P2;PMS_P1;PMS_P2;Temp;Humidity;BMP_temperature;BMP_pressure;BME280_temperature;BME280_humidity;BME280_pressure;Samples;Min_cycle;Max_cycle;Signal;HPM_P1;HPM_P2
2021/12/05 00:22:16;;;;;;;8.65;4.75;;;3.00;91.80;;;;;;5046977;28;19915;-75
2021/12/05 00:24:47;;;;;;;10.10;4.95;;;3.00;92.20;;;;;;5045667;28;20017;-74
2021/12/05 00:27:20;;;;;;;19.00;9.88;;;2.90;92.80;;;;;;5046762;28;20028;-74
2021/12/05 00:30:01;;;;;;;11.38;6.28;;;2.90;92.70;;;;;;5046509;28;20213;-75
2021/12/05 00:54:45;;;;;;;11.20;6.03;;;2.90;92.80;;;;;;5037147;28;19905;-74
2021/12/05 01:05:14;;;;;;;9.68;5.78;;;2.90;93.10;;;;;;5045964;28;20105;-75
2021/12/05 01:07:59;;;;;;;8.10;4.45;;;2.90;93.30;;;;;;5045543;28;20124;-75
2021/12/05 01:13:34;;;;;;;9.35;4.90;;;2.60;93.70;;;;;;5045963;28;20057;-75
2021/12/05 01:16:07;;;;;;;8.45;5.03;;;2.60;93.90;;;;;;5071401;28;20020;-75
2021/12/05 01:18:34;;;;;;;10.05;4.85;;;2.80;93.70;;;;;;5071969;28;20025;-75
2021/12/05 01:21:08;;;;;;;8.38;4.75;;;2.80;93.60;;;;;;5071901;28;20021;-75
2021/12/05 01:26:11;;;;;;;9.63;5.13;;;2.90;94.10;;;;;;5071878;28;20068;-75
2021/12/05 01:31:52;;;;;;;11.25;6.35;;;2.90;94.30;;;;;;5071650;28;20459;-74
2021/12/05 01:37:26;;;;;;;12.70;5.35;;;2.90;94.50;;;;;;5072207;28;20047;-74
2021/12/05 01:40:07;;;;;;;11.70;5.53;;;2.80;94.60;;;;;;5071778;28;20107;-74
2021/12/05 01:53:58;;;;;;;9.48;5.78;;;2.90;95.30;;;;;;5071608;28;20111;-74
2021/12/05 01:59:24;;;;;;;8.05;5.13;;;2.70;95.10;;;;;;5071544;28;20055;-74
2021/12/05 02:15:53;;;;;;;10.18;6.05;;;2.70;94.90;;;;;;5071307;28;20067;-74
2021/12/05 02:45:34;;;;;;;12.73;6.43;;;2.60;97.30;;;;;;5071295;28;20475;-74
2021/12/05 02:48:00;;;;;;;12.82;6.63;;;2.60;97.90;;;;;;5072361;28;20119;-74
2021/12/05 02:50:29;;;;;;;14.00;8.07;;;2.70;97.90;;;;;;5073287;28;20090;-74
2021/12/05 02:53:01;;;;;;;12.50;6.68;;;2.60;98.00;;;;;;5074621;28;20023;-74
2021/12/05 02:55:42;;;;;;;12.25;7.55;;;2.70;98.00;;;;;;5074484;28;20029;-74
2021/12/05 03:03:32;;;;;;;13.10;8.52;;;2.70;98.70;;;;;;5074433;28;20467;-74
2021/12/05 03:06:20;;;;;;;10.60;7.70;;;2.70;98.90;;;;;;5074494;28;20025;-74
2021/12/05 03:08:49;;;;;;;12.27;6.72;;;2.70;99.30;;;;;;5074790;28;20028;-74
2021/12/05 03:11:16;;;;;;;13.73;7.93;;;2.60;99.60;;;;;;5074292;28;20032;-74
2021/12/05 03:13:42;;;;;;;14.32;7.95;;;2.60;99.80;;;;;;5074315;28;20382;-74
2021/12/05 03:16:13;;;;;;;13.23;7.45;;;2.60;99.90;;;;;;5074354;28;20020;-74
2021/12/05 03:18:40;;;;;;;12.70;8.27;;;2.70;99.90;;;;;;5074132;28;20107;-74
2021/12/05 03:21:07;;;;;;;12.93;8.18;;;2.80;99.90;;;;;;5074558;28;20021;-74
2021/12/05 03:23:38;;;;;;;14.05;8.98;;;2.80;99.90;;;;;;5074334;28;20027;-74
2021/12/05 03:26:10;;;;;;;13.25;8.52;;;2.60;99.90;;;;;;5074168;28;20034;-74
2021/12/05 03:28:38;;;;;;;11.68;8.15;;;2.60;99.90;;;;;;5073947;28;20025;-74
2021/12/05 03:31:06;;;;;;;12.98;8.15;;;2.50;99.90;;;;;;5072611;28;20394;-74
2021/12/05 03:33:32;;;;;;;13.38;8.30;;;2.40;99.90;;;;;;5073815;28;20074;-74
2021/12/05 03:35:58;;;;;;;16.35;8.30;;;2.40;99.90;;;;;;5073937;28;20028;-75
2021/12/05 03:38:25;;;;;;;13.70;8.90;;;2.40;99.90;;;;;;5074319;28;20032;-74
2021/12/05 03:40:50;;;;;;;11.45;7.82;;;2.30;99.90;;;;;;5072387;28;20028;-74
2021/12/05 03:43:18;;;;;;;12.55;9.13;;;2.30;99.90;;;;;;5073725;28;20024;-74
2021/12/05 03:45:49;;;;;;;12.50;8.63;;;2.40;99.90;;;;;;5073663;28;20024;-74
2021/12/05 03:48:17;;;;;;;11.25;7.63;;;2.50;99.90;;;;;;5073714;28;20048;-74
2021/12/05 03:50:44;;;;;;;14.43;9.27;;;2.70;99.90;;;;;;5073332;28;20032;-74
2021/12/05 03:53:11;;;;;;;13.32;8.50;;;2.70;99.90;;;;;;5073649;28;20035;-75
2021/12/05 03:55:40;;;;;;;13.73;8.85;;;2.40;99.90;;;;;;5073477;28;20029;-75
2021/12/05 03:58:07;;;;;;;13.27;8.18;;;2.30;99.90;;;;;;5073491;28;20033;-75
2021/12/05 04:00:39;;;;;;;15.48;8.75;;;2.30;99.90;;;;;;5069366;28;20081;-75
2021/12/05 04:03:08;;;;;;;15.23;9.32;;;2.30;99.90;;;;;;5058852;28;20031;-76
2021/12/05 04:05:35;;;;;;;15.00;9.65;;;2.10;99.90;;;;;;5066123;28;20688;-76
2021/12/05 04:08:06;;;;;;;13.68;9.60;;;2.20;99.90;;;;;;5065692;28;20482;-76
2021/12/05 04:10:33;;;;;;;14.35;9.50;;;2.30;99.90;;;;;;5065661;28;20717;-76
2021/12/05 04:12:59;;;;;;;16.95;10.60;;;2.40;99.90;;;;;;5065818;28;20024;-76
2021/12/05 04:15:26;;;;;;;19.60;10.43;;;2.20;99.90;;;;;;5065687;28;20103;-76
2021/12/05 04:17:52;;;;;;;17.33;11.63;;;2.00;99.90;;;;;;5080761;28;20082;-76
2021/12/05 04:20:19;;;;;;;16.23;10.15;;;2.00;99.90;;;;;;5065766;28;20116;-75
2021/12/05 04:22:45;;;;;;;19.63;10.55;;;2.00;99.90;;;;;;5067371;28;20036;-76
2021/12/05 04:25:14;;;;;;;17.33;10.13;;;2.00;99.90;;;;;;5068338;28;20036;-76
2021/12/05 04:27:42;;;;;;;17.60;9.68;;;1.90;99.90;;;;;;5068402;28;20070;-76
2021/12/05 04:30:10;;;;;;;17.05;9.98;;;1.90;99.90;;;;;;5068166;28;20040;-76
2021/12/05 04:32:36;;;;;;;14.68;10.23;;;1.90;99.90;;;;;;5068292;28;20097;-76
2021/12/05 04:35:02;;;;;;;14.27;9.73;;;2.00;99.90;;;;;;5068345;28;20048;-76
2021/12/05 04:37:28;;;;;;;16.05;10.20;;;2.00;99.90;;;;;;5068077;28;20055;-76
2021/12/05 04:39:54;;;;;;;17.40;9.68;;;2.20;99.90;;;;;;5068013;28;20596;-75
2021/12/05 04:42:20;;;;;;;13.80;8.50;;;2.20;99.90;;;;;;5068163;28;20058;-76
2021/12/05 04:44:46;;;;;;;14.82;9.80;;;2.30;99.90;;;;;;5067641;28;20063;-76
2021/12/05 04:47:12;;;;;;;12.80;8.63;;;2.30;99.90;;;;;;5067675;28;20460;-75
2021/12/05 04:49:41;;;;;;;12.55;8.32;;;2.30;99.90;;;;;;5067838;28;20025;-76
2021/12/05 04:52:09;;;;;;;14.10;8.05;;;2.30;99.90;;;;;;5067902;28;20059;-76
2021/12/05 04:54:35;;;;;;;13.25;8.32;;;2.20;99.90;;;;;;5067854;28;20417;-76
2021/12/05 04:57:02;;;;;;;10.55;6.75;;;2.40;99.90;;;;;;5067941;28;20099;-76
2021/12/05 04:59:31;;;;;;;7.25;3.75;;;2.40;99.90;;;;;;5064542;28;20502;-76
2021/12/05 05:01:57;;;;;;;7.57;3.72;;;2.70;99.90;;;;;;5064479;28;20031;-76
2021/12/05 05:04:27;;;;;;;6.20;3.60;;;2.90;99.90;;;;;;5064842;28;20029;-76
2021/12/05 05:07:01;;;;;;;7.68;4.50;;;3.00;99.90;;;;;;5064529;28;20027;-76
2021/12/05 05:09:27;;;;;;;13.52;6.88;;;2.90;99.90;;;;;;5064425;28;20043;-76
2021/12/05 05:11:53;;;;;;;10.23;6.68;;;2.80;99.90;;;;;;5064179;28;20020;-76
2021/12/05 05:14:19;;;;;;;9.52;6.10;;;2.60;99.90;;;;;;5064574;28;20031;-76
2021/12/05 05:16:47;;;;;;;8.30;5.93;;;2.70;99.90;;;;;;5064566;28;20115;-76
2021/12/05 05:19:16;;;;;;;10.80;5.88;;;2.60;99.90;;;;;;5064917;28;20024;-76
2021/12/05 05:40:23;;;;;;;8.07;5.25;;;2.50;99.90;;;;;;5064246;28;20635;-76
2021/12/05 05:45:51;;;;;;;6.85;4.00;;;2.50;99.90;;;;;;5064156;28;20041;-76
2021/12/05 05:50:51;;;;;;;;;;;2.80;99.90;;;;;;5064608;28;20032;-76
2021/12/05 05:53:17;;;;;;;22.48;9.77;;;2.90;99.90;;;;;;5064856;28;19961;-76
2021/12/05 05:55:43;;;;;;;23.88;13.55;;;2.90;99.90;;;;;;5064430;28;20436;-76
2021/12/05 05:58:15;;;;;;;38.85;17.52;;;2.80;99.90;;;;;;5063805;28;20016;-76
2021/12/05 06:00:58;;;;;;;7.55;4.72;;;2.80;99.90;;;;;;5064184;28;20017;-76
2021/12/05 06:03:24;;;;;;;5.95;3.45;;;2.80;99.90;;;;;;5064532;28;20020;-76
2021/12/05 06:06:09;;;;;;;9.48;5.20;;;2.90;99.90;;;;;;5064132;28;20089;-76
2021/12/05 06:08:37;;;;;;;7.95;5.10;;;2.80;99.90;;;;;;5063953;28;20025;-76
2021/12/05 06:11:09;;;;;;;6.65;4.38;;;2.70;99.90;;;;;;5063997;28;20263;-76
2021/12/05 06:13:36;;;;;;;7.57;4.72;;;2.70;99.90;;;;;;5064096;28;20815;-76
2021/12/05 06:16:03;;;;;;;7.55;4.10;;;2.70;99.90;;;;;;5064177;28;20028;-75
2021/12/05 06:18:29;;;;;;;6.75;4.05;;;2.80;99.90;;;;;;5063960;28;20036;-76
2021/12/05 06:20:56;;;;;;;6.03;4.40;;;2.80;99.90;;;;;;5063657;28;20659;-76
2021/12/05 06:23:22;;;;;;;6.55;3.63;;;2.80;99.90;;;;;;5065622;28;20052;-75
2021/12/05 06:25:50;;;;;;;7.55;4.97;;;2.80;99.90;;;;;;5083293;28;20024;-75
2021/12/05 06:28:22;;;;;;;6.82;3.95;;;2.90;99.90;;;;;;5067726;28;20459;-76
2021/12/05 06:39:27;;;;;;;44.05;27.52;;;3.20;99.90;;;;;;5067313;28;20494;-76
2021/12/05 06:47:20;;;;;;;6.75;4.70;;;3.00;99.90;;;;;;5067332;28;20462;-76
2021/12/05 06:49:46;;;;;;;7.18;3.63;;;3.00;99.90;;;;;;5067050;28;20063;-76
2021/12/05 06:52:12;;;;;;;6.55;4.13;;;3.10;99.90;;;;;;5067176;28;20470;-76
2021/12/05 06:54:39;;;;;;;6.95;4.28;;;3.10;99.90;;;;;;5082912;28;20393;-76
2021/12/05 06:57:06;;;;;;;7.38;4.47;;;3.30;99.90;;;;;;5067331;28;20032;-76
2021/12/05 06:59:33;;;;;;;24.85;11.15;;;3.30;99.90;;;;;;5066950;28;20386;-76
2021/12/05 07:01:59;;;;;;;11.25;7.88;;;3.30;99.90;;;;;;5067248;28;20032;-75
2021/12/05 07:07:11;;;;;;;8.15;4.47;;;3.30;99.90;;;;;;5066857;28;20478;-76
2021/12/05 07:09:38;;;;;;;6.70;4.00;;;3.20;99.90;;;;;;5067059;28;20025;-76
2021/12/05 07:15:01;;;;;;;6.40;3.92;;;3.10;99.90;;;;;;5066435;28;20066;-76
2021/12/05 07:20:38;;;;;;;6.70;4.03;;;3.10;99.90;;;;;;5066845;28;20095;-75
2021/12/05 07:23:22;;;;;;;5.45;3.30;;;3.10;99.90;;;;;;5066829;28;20391;-76
2021/12/05 07:25:54;;;;;;;7.07;3.75;;;3.00;99.90;;;;;;5066687;28;20020;-75
2021/12/05 07:42:11;;;;;;;8.73;5.55;;;2.80;99.90;;;;;;5066266;28;20043;-75
2021/12/05 07:44:37;;;;;;;7.25;4.35;;;2.80;99.90;;;;;;5066281;28;20060;-76
2021/12/05 07:47:03;;;;;;;7.18;3.97;;;2.80;99.90;;;;;;5065992;28;20149;-75
2021/12/05 07:49:29;;;;;;;12.30;6.20;;;2.80;99.90;;;;;;5065597;28;20367;-75
2021/12/05 07:51:57;;;;;;;8.07;4.80;;;2.90;99.90;;;;;;5066387;28;20032;-75
2021/12/05 07:54:39;;;;;;;5.82;4.15;;;3.00;99.90;;;;;;5066099;28;20096;-76
2021/12/05 07:57:22;;;;;;;6.88;4.28;;;3.10;99.90;;;;;;5065907;28;20021;-76
2021/12/05 08:00:40;;;;;;;6.85;4.20;;;3.10;99.90;;;;;;5065900;28;20059;-75
2021/12/05 08:16:18;;;;;;;6.23;3.43;;;3.30;99.90;;;;;;5065735;28;20266;-75
2021/12/05 08:18:44;;;;;;;5.57;3.60;;;3.30;99.90;;;;;;5065856;28;20610;-76
2021/12/05 08:21:12;;;;;;;6.90;3.55;;;3.40;99.90;;;;;;5065649;28;20115;-76
2021/12/05 08:23:39;;;;;;;6.28;3.65;;;3.40;99.90;;;;;;5065468;28;20104;-76
2021/12/05 08:31:16;;;;;;;7.55;4.97;;;3.40;99.90;;;;;;5065213;28;20029;-76
2021/12/05 08:39:24;;;;;;;6.88;3.47;;;3.50;99.90;;;;;;5064980;28;20088;-76
2021/12/05 10:03:11;;;;;;;6.28;2.60;;;4.30;99.90;;;;;;5071566;28;20122;-76
2021/12/05 10:08:51;;;;;;;3.90;2.13;;;4.60;99.90;;;;;;5071468;28;20061;-76
2021/12/05 10:36:14;;;;;;;2.88;1.15;;;5.10;99.90;;;;;;5070653;28;20095;-76
2021/12/05 10:38:51;;;;;;;2.38;1.30;;;5.20;99.90;;;;;;5070515;28;20100;-76
2021/12/05 10:41:22;;;;;;;3.90;1.55;;;5.10;99.90;;;;;;5070302;28;20028;-76
2021/12/05 10:43:52;;;;;;;5.20;1.48;;;5.10;99.90;;;;;;5070418;28;20059;-75
2021/12/05 10:46:20;;;;;;;3.75;1.98;;;5.20;99.90;;;;;;5069901;28;20119;-76
2021/12/05 10:48:54;;;;;;;3.30;1.42;;;5.40;99.90;;;;;;5070262;28;20021;-76
2021/12/05 10:51:32;;;;;;;4.23;2.00;;;5.50;99.90;;;;;;5070261;28;20344;-76
2021/12/05 10:53:58;;;;;;;4.15;2.25;;;5.40;99.90;;;;;;5070448;28;20021;-76
2021/12/05 10:56:32;;;;;;;4.70;2.58;;;5.40;99.90;;;;;;5070095;28;20025;-76
2021/12/05 10:59:03;;;;;;;4.80;2.33;;;5.40;99.90;;;;;;5070003;28;20074;-76
2021/12/05 11:01:59;;;;;;;6.35;2.80;;;5.50;99.90;;;;;;5070168;28;20782;-76
2021/12/05 11:04:32;;;;;;;4.05;2.10;;;5.40;99.90;;;;;;5061177;28;20043;-76
2021/12/05 11:07:02;;;;;;;5.18;3.17;;;5.50;99.90;;;;;;5070000;28;20021;-76
2021/12/05 11:09:43;;;;;;;6.68;3.15;;;5.80;99.90;;;;;;5069334;28;20024;-76
2021/12/05 11:12:18;;;;;;;6.95;3.45;;;6.00;99.90;;;;;;5069345;28;20113;-76
2021/12/05 11:15:12;;;;;;;5.57;3.60;;;5.80;99.90;;;;;;5069727;28;20028;-76
2021/12/05 11:17:46;;;;;;;6.68;2.47;;;6.10;99.90;;;;;;5069394;28;20033;-76
2021/12/05 11:20:28;;;;;;;6.28;3.13;;;6.10;99.90;;;;;;5069881;28;20032;-76
2021/12/05 11:22:55;;;;;;;5.20;3.20;;;6.50;99.90;;;;;;5066872;28;20541;-76
2021/12/05 11:25:25;;;;;;;4.90;2.85;;;6.70;99.90;;;;;;5067209;28;20028;-76
2021/12/05 11:28:00;;;;;;;3.17;1.63;;;7.00;99.90;;;;;;5069774;28;20025;-76
2021/12/05 11:30:33;;;;;;;4.60;2.33;;;6.70;98.20;;;;;;5069263;28;20028;-76
2021/12/05 11:33:02;;;;;;;4.57;2.33;;;6.80;98.20;;;;;;5069791;28;20028;-76
2021/12/05 11:35:35;;;;;;;4.63;3.10;;;7.10;98.50;;;;;;5069524;28;20033;-76
2021/12/05 11:38:05;;;;;;;3.25;1.73;;;6.90;99.70;;;;;;5068324;28;20175;-76
2021/12/05 11:40:42;;;;;;;3.90;2.17;;;6.80;98.00;;;;;;5069150;28;20485;-75
2021/12/05 11:43:10;;;;;;;6.50;3.42;;;7.10;98.10;;;;;;5069541;28;20035;-76
2021/12/05 11:45:52;;;;;;;4.63;3.03;;;7.10;99.10;;;;;;5069741;28;20910;-76
2021/12/05 11:48:31;;;;;;;4.00;2.22;;;7.00;99.90;;;;;;5069319;28;20036;-76
2021/12/05 11:50:59;;;;;;;5.30;2.70;;;6.90;98.00;;;;;;5068998;28;20123;-76
2021/12/05 11:53:40;;;;;;;4.18;2.30;;;7.30;98.40;;;;;;5069064;28;20157;-76
2021/12/05 11:56:07;;;;;;;9.35;5.15;;;7.40;97.20;;;;;;5069264;28;20028;-76
2021/12/05 11:58:34;;;;;;;5.68;3.42;;;7.40;97.70;;;;;;5069020;28;20024;-76
2021/12/05 12:01:10;;;;;;;4.38;2.78;;;7.20;98.60;;;;;;5068823;28;20020;-76
2021/12/05 12:03:37;;;;;;;3.78;2.22;;;6.90;97.70;;;;;;5084580;28;20028;-76
2021/12/05 12:06:04;;;;;;;4.95;2.42;;;6.70;97.60;;;;;;5069036;28;20417;-76
2021/12/05 12:08:30;;;;;;;5.43;3.05;;;6.70;98.10;;;;;;5068747;28;20506;-75
2021/12/05 12:11:00;;;;;;;6.13;3.63;;;6.70;99.20;;;;;;5068513;28;20067;-76
2021/12/05 12:13:31;;;;;;;5.65;3.10;;;6.60;99.10;;;;;;5068590;28;20016;-76
2021/12/05 12:16:00;;;;;;;5.97;3.00;;;6.80;99.30;;;;;;5068721;28;20020;-76
2021/12/05 12:18:33;;;;;;;6.30;4.00;;;6.70;98.60;;;;;;5068420;28;20021;-76
2021/12/05 12:21:18;;;;;;;6.78;3.70;;;6.60;99.30;;;;;;5067590;28;20162;-76
2021/12/05 12:23:45;;;;;;;5.68;3.65;;;6.40;99.90;;;;;;5068366;28;20025;-76
2021/12/05 12:26:11;;;;;;;5.90;3.10;;;6.40;99.90;;;;;;5068511;28;20360;-76
2021/12/05 12:28:38;;;;;;;9.05;3.92;;;6.60;99.90;;;;;;5068375;28;20025;-76
2021/12/05 12:31:15;;;;;;;5.13;3.15;;;6.40;99.60;;;;;;5068434;28;20036;-76
2021/12/05 12:33:51;;;;;;;5.50;3.47;;;6.60;99.40;;;;;;5068249;28;20024;-76
2021/12/05 12:36:34;;;;;;;5.50;3.25;;;6.60;99.00;;;;;;5068227;28;20061;-76
2021/12/05 12:39:04;;;;;;;5.32;2.53;;;6.70;99.10;;;;;;5068331;28;20021;-76
2021/12/05 12:41:32;;;;;;;5.00;2.65;;;6.50;98.40;;;;;;5068100;28;20383;-75
2021/12/05 12:44:06;;;;;;;4.35;2.33;;;6.40;98.60;;;;;;5067916;28;20028;-76
2021/12/05 12:46:38;;;;;;;6.15;3.67;;;6.50;98.60;;;;;;5067927;28;20081;-76
2021/12/05 12:49:16;;;;;;;5.70;3.35;;;6.60;99.00;;;;;;5067994;28;20021;-76
2021/12/05 12:51:49;;;;;;;5.05;2.45;;;6.70;99.10;;;;;;5067850;28;20032;-76
2021/12/05 12:54:28;;;;;;;4.38;2.53;;;6.50;97.70;;;;;;5083452;28;20391;-76
2021/12/05 12:57:09;;;;;;;4.43;2.30;;;6.70;97.90;;;;;;5068091;28;20024;-76
2021/12/05 12:59:40;;;;;;;5.80;2.05;;;6.70;97.60;;;;;;5067722;28;20023;-76
2021/12/05 13:05:19;;;;;;;4.65;2.50;;;6.70;98.00;;;;;;5067733;28;20387;-76
2021/12/05 13:10:30;;;;;;;4.30;2.60;;;6.70;98.00;;;;;;5067655;28;20313;-76
2021/12/05 13:13:02;;;;;;;4.65;2.28;;;6.50;97.10;;;;;;5067511;28;20051;-76
2021/12/05 13:15:35;;;;;;;4.78;2.50;;;6.60;97.40;;;;;;5067530;28;20044;-76
2021/12/05 13:18:21;;;;;;;4.70;2.53;;;6.70;97.40;;;;;;5067586;28;20487;-76
2021/12/05 13:20:54;;;;;;;5.68;2.55;;;6.80;98.10;;;;;;5067423;28;20020;-76
2021/12/05 13:23:37;;;;;;;5.07;2.53;;;6.80;97.70;;;;;;5067593;28;20161;-76
2021/12/05 13:26:23;;;;;;;5.80;3.22;;;6.90;97.60;;;;;;5067396;28;20133;-76
2021/12/05 13:29:12;;;;;;;6.43;3.05;;;6.80;98.10;;;;;;5067170;28;20032;-76
2021/12/05 13:31:53;;;;;;;4.40;2.50;;;6.80;98.10;;;;;;5066476;28;20048;-76
2021/12/05 13:34:26;;;;;;;4.45;2.17;;;6.70;98.10;;;;;;5067603;28;20028;-76
2021/12/05 13:36:57;;;;;;;5.25;3.03;;;6.70;98.10;;;;;;5067481;28;20029;-76
2021/12/05 13:39:47;;;;;;;4.13;2.38;;;6.70;97.80;;;;;;5067384;28;20363;-76
2021/12/05 13:42:42;;;;;;;6.15;2.38;;;6.80;97.50;;;;;;5067466;28;20025;-76
2021/12/05 13:45:21;;;;;;;5.18;2.50;;;6.80;97.60;;;;;;5066692;28;20024;-76
2021/12/05 13:48:09;;;;;;;4.40;2.15;;;6.70;97.10;;;;;;5066932;28;20621;-76
2021/12/05 13:50:48;;;;;;;5.40;2.17;;;6.80;96.70;;;;;;5065705;28;20033;-76
2021/12/05 13:53:24;;;;;;;4.30;2.30;;;6.90;95.80;;;;;;5066233;28;20202;-76
2021/12/05 13:55:53;;;;;;;7.78;3.03;;;7.20;96.90;;;;;;5066938;28;20107;-76
2021/12/05 13:58:45;;;;;;;6.15;1.92;;;7.10;96.00;;;;;;5067092;28;20020;-76
2021/12/05 14:01:17;;;;;;;4.03;1.65;;;7.00;95.70;;;;;;5066802;28;20025;-76
2021/12/05 14:03:59;;;;;;;3.15;1.73;;;6.90;94.60;;;;;;5067235;28;20024;-76
2021/12/05 14:06:28;;;;;;;3.88;1.80;;;6.90;95.70;;;;;;5066661;28;20078;-76
2021/12/05 14:08:56;;;;;;;11.00;5.90;;;6.90;95.80;;;;;;5067044;28;20032;-76
2021/12/05 14:11:26;;;;;;;4.75;2.40;;;6.80;95.90;;;;;;5066644;28;20036;-76
2021/12/05 14:13:52;;;;;;;5.07;2.20;;;6.80;95.70;;;;;;5067131;28;20028;-76
2021/12/05 14:16:20;;;;;;;4.22;1.92;;;6.80;95.30;;;;;;5066736;28;20077;-76
2021/12/05 14:18:46;;;;;;;3.88;1.77;;;6.70;95.20;;;;;;5067169;28;20024;-76
2021/12/05 14:21:13;;;;;;;3.65;1.70;;;6.70;94.90;;;;;;5066907;28;20024;-76
2021/12/05 14:23:39;;;;;;;5.80;3.05;;;6.80;94.30;;;;;;5066647;28;20029;-76
2021/12/05 14:26:20;;;;;;;9.18;5.60;;;6.80;95.10;;;;;;5067029;28;20029;-76
2021/12/05 14:29:05;;;;;;;3.33;1.60;;;6.70;95.00;;;;;;5066507;28;20112;-76
2021/12/05 14:31:34;;;;;;;;;;;6.70;94.10;;;;;;5067048;28;20059;-76
2021/12/05 14:34:00;;;;;;;13.00;6.45;;;6.70;94.00;;;;;;5066736;28;19919;-76
2021/12/05 14:36:33;;;;;;;3.83;1.42;;;6.60;93.90;;;;;;5066735;28;20050;-75
2021/12/05 14:39:45;;;;;;;4.50;1.60;;;6.40;94.50;;;;;;5066732;28;20549;-76
2021/12/05 14:42:16;;;;;;;3.90;1.42;;;6.40;94.10;;;;;;5066144;28;20041;-76
2021/12/05 14:44:44;;;;;;;25.25;11.73;;;6.50;93.40;;;;;;5069049;28;20427;-76
2021/12/05 14:47:14;;;;;;;30.38;14.55;;;6.50;93.60;;;;;;5070381;28;20052;-76
2021/12/05 14:49:46;;;;;;;12.00;7.10;;;6.50;93.90;;;;;;5070009;28;20081;-76
2021/12/05 14:52:19;;;;;;;4.03;1.83;;;6.50;93.40;;;;;;5070205;28;20036;-75
2021/12/05 14:54:46;;;;;;;3.97;1.30;;;6.40;93.20;;;;;;5070159;28;20040;-76
2021/12/05 14:57:19;;;;;;;2.10;1.00;;;6.40;93.20;;;;;;5070007;28;20592;-76
2021/12/05 14:59:48;;;;;;;3.67;1.67;;;6.30;93.30;;;;;;5069770;28;20040;-76
2021/12/05 15:02:16;;;;;;;2.25;0.95;;;6.30;93.70;;;;;;5070212;28;20017;-76
2021/12/05 15:04:48;;;;;;;5.07;2.10;;;6.40;93.10;;;;;;5069894;28;20479;-76
2021/12/05 15:07:17;;;;;;;2.78;1.00;;;6.40;93.70;;;;;;5069898;28;20099;-76
2021/12/05 15:09:46;;;;;;;1.85;0.80;;;6.40;92.90;;;;;;5069965;28;20104;-76
2021/12/05 15:12:16;;;;;;;2.55;1.02;;;6.40;92.50;;;;;;5069764;28;20032;-76
2021/12/05 15:14:44;;;;;;;6.47;1.67;;;6.40;92.70;;;;;;5069826;28;20026;-76
2021/12/05 15:17:21;;;;;;;5.45;3.13;;;6.30;92.80;;;;;;5069739;28;20024;-76
2021/12/05 15:19:49;;;;;;;9.18;4.30;;;6.30;92.80;;;;;;5069577;28;20093;-76
2021/12/05 15:22:15;;;;;;;3.40;1.52;;;6.30;93.50;;;;;;5069692;28;20494;-76
2021/12/05 15:24:52;;;;;;;4.43;1.38;;;6.30;92.70;;;;;;5069549;28;20021;-76
2021/12/05 15:27:21;;;;;;;2.85;1.23;;;6.20;92.60;;;;;;5069699;28;20017;-76
2021/12/05 15:29:55;;;;;;;2.45;0.88;;;6.20;92.40;;;;;;5069552;28;20036;-76
2021/12/05 15:32:24;;;;;;;1.77;0.60;;;6.30;91.90;;;;;;5069523;28;20033;-76
2021/12/05 15:34:53;;;;;;;3.70;1.55;;;6.20;93.30;;;;;;5069253;28;20323;-76
2021/12/05 15:37:20;;;;;;;5.90;1.77;;;6.20;92.50;;;;;;5069355;28;20063;-76
2021/12/05 15:39:49;;;;;;;6.07;1.20;;;6.00;93.50;;;;;;5069436;28;20028;-76
2021/12/05 15:42:24;;;;;;;2.08;0.90;;;6.00;93.40;;;;;;5069493;28;20027;-76
2021/12/05 15:44:53;;;;;;;2.58;1.02;;;5.90;93.20;;;;;;5069195;28;20025;-76
2021/12/05 15:47:22;;;;;;;2.03;0.85;;;5.90;93.40;;;;;;5068926;28;20131;-76
2021/12/05 15:49:54;;;;;;;1.58;0.70;;;6.10;92.10;;;;;;5069463;28;20029;-76
2021/12/05 15:52:45;;;;;;;1.65;0.68;;;6.10;92.30;;;;;;5069152;28;20049;-76
2021/12/05 15:55:16;;;;;;;2.28;0.95;;;6.10;92.30;;;;;;5063910;28;20036;-76
2021/12/05 15:57:47;;;;;;;3.22;1.10;;;6.10;92.20;;;;;;5068814;28;20055;-76
2021/12/05 16:00:38;;;;;;;2.17;0.95;;;6.10;91.80;;;;;;5068780;28;20566;-76
2021/12/05 16:03:07;;;;;;;2.47;1.15;;;6.20;91.70;;;;;;5068250;28;20033;-75
2021/12/05 16:05:39;;;;;;;2.40;1.00;;;6.10;91.70;;;;;;5068752;28;20082;-75
2021/12/05 16:08:13;;;;;;;1.85;0.90;;;6.10;91.70;;;;;;5068788;28;20021;-75
2021/12/05 16:10:45;;;;;;;1.70;0.80;;;6.10;91.90;;;;;;5068283;28;20068;-76
2021/12/05 16:13:16;;;;;;;1.98;0.90;;;6.10;91.40;;;;;;5068485;28;20595;-76
2021/12/05 16:15:43;;;;;;;2.70;0.90;;;6.20;91.30;;;;;;5068724;28;20724;-76
2021/12/05 16:18:09;;;;;;;1.05;0.68;;;6.10;91.40;;;;;;5068666;28;20029;-76
2021/12/05 16:20:55;;;;;;;2.50;0.80;;;6.10;91.10;;;;;;5068511;28;20032;-76
2021/12/05 16:23:24;;;;;;;1.65;0.50;;;6.10;91.20;;;;;;5068387;28;20016;-76
2021/12/05 16:26:01;;;;;;;3.10;1.02;;;6.20;91.00;;;;;;5068490;28;20024;-76
2021/12/05 16:28:36;;;;;;;2.33;0.70;;;6.20;91.00;;;;;;5068325;28;20110;-76
2021/12/05 16:31:22;;;;;;;2.25;0.88;;;6.10;91.00;;;;;;5068147;28;20032;-76
2021/12/05 16:33:52;;;;;;;0.80;0.47;;;6.10;91.30;;;;;;5067657;28;20462;-76
2021/12/05 16:36:19;;;;;;;2.60;1.10;;;6.10;91.30;;;;;;5068129;28;20021;-76
2021/12/05 16:38:47;;;;;;;2.42;1.00;;;6.10;91.40;;;;;;5067845;28;20075;-76
2021/12/05 16:41:24;;;;;;;3.25;1.10;;;6.10;91.30;;;;;;5068141;28;20016;-76
2021/12/05 16:44:07;;;;;;;4.28;1.02;;;6.10;91.40;;;;;;5068270;28;20122;-76
2021/12/05 16:46:36;;;;;;;3.05;1.17;;;6.20;91.00;;;;;;5067788;28;20127;-76
2021/12/05 16:49:06;;;;;;;2.75;1.40;;;6.10;91.30;;;;;;5067914;28;20082;-76
2021/12/05 16:51:54;;;;;;;3.80;1.10;;;6.00;91.50;;;;;;5064423;28;20060;-75
2021/12/05 16:54:28;;;;;;;3.53;1.27;;;6.40;94.10;;;;;;5051755;28;20044;-78
2021/12/05 16:56:56;;;;;;;2.08;0.90;;;7.50;90.30;;;;;;5061455;28;20466;-80
2021/12/05 16:59:24;;;;;;;2.10;0.80;;;6.40;91.10;;;;;;5063945;28;20703;-76
2021/12/05 17:02:19;;;;;;;2.85;1.30;;;6.20;91.20;;;;;;5049052;28;20032;-76
2021/12/05 17:04:49;;;;;;;;;;;6.20;91.50;;;;;;5055381;28;20790;-76
2021/12/05 17:07:35;;;;;;;2.47;1.20;;;6.10;91.30;;;;;;5059449;28;20354;-75
2021/12/05 17:10:04;;;;;;;2.90;1.40;;;6.00;91.30;;;;;;5065452;28;20024;-75
2021/12/05 17:12:33;;;;;;;2.33;0.75;;;6.10;91.70;;;;;;5046944;28;20037;-74
2021/12/05 17:15:21;;;;;;;3.17;1.00;;;5.80;91.70;;;;;;5053725;28;20024;-75
2021/12/05 17:17:49;;;;;;;2.42;0.88;;;5.80;91.80;;;;;;5046357;28;20028;-75
2021/12/05 17:20:22;;;;;;;3.28;0.93;;;5.60;92.00;;;;;;5047451;28;20025;-75
2021/12/05 17:23:04;;;;;;;1.63;0.77;;;5.60;92.30;;;;;;5050711;28;20029;-75
2021/12/05 17:25:38;;;;;;;3.08;1.30;;;5.40;92.50;;;;;;5047318;28;20041;-75
2021/12/05 17:28:08;;;;;;;2.38;0.82;;;5.20;92.50;;;;;;5065149;28;20508;-75
2021/12/05 17:30:35;;;;;;;2.50;1.08;;;5.10;92.60;;;;;;5062675;28;20064;-75
2021/12/05 17:33:00;;;;;;;3.13;1.15;;;5.10;92.70;;;;;;5050127;28;20139;-75
2021/12/05 17:35:28;;;;;;;3.00;0.90;;;4.90;93.00;;;;;;5056890;28;20474;-75
2021/12/05 17:37:54;;;;;;;3.22;1.13;;;4.70;93.40;;;;;;5055939;28;20032;-75
2021/12/05 17:40:21;;;;;;;2.42;0.90;;;4.70;93.30;;;;;;5049143;28;20029;-75
2021/12/05 17:42:47;;;;;;;3.35;1.23;;;4.70;93.30;;;;;;5062674;28;20021;-74
2021/12/05 17:45:15;;;;;;;2.25;1.15;;;4.70;93.50;;;;;;5047069;28;20070;-75
2021/12/05 17:47:41;;;;;;;1.38;0.70;;;4.80;93.00;;;;;;5058429;28;20040;-75
2021/12/05 17:50:13;;;;;;;1.83;0.77;;;4.80;92.80;;;;;;5064763;28;20024;-75
2021/12/05 17:52:39;;;;;;;0.85;0.50;;;4.60;93.10;;;;;;5066024;28;20037;-75
2021/12/05 17:55:14;;;;;;;1.08;0.60;;;4.50;93.30;;;;;;5065577;28;20029;-75
2021/12/05 17:57:49;;;;;;;3.85;1.30;;;4.50;93.50;;;;;;5056545;28;20368;-75
2021/12/05 18:00:23;;;;;;;;;;;4.80;92.90;;;;;;5065447;28;20048;-75
2021/12/05 18:02:55;;;;;;;2.35;1.38;;;4.90;92.70;;;;;;5059378;28;19999;-75
2021/12/05 18:05:27;;;;;;;3.25;1.33;;;4.90;92.70;;;;;;5064621;28;20033;-75
2021/12/05 18:07:56;;;;;;;3.75;1.13;;;4.80;92.80;;;;;;5062680;28;20056;-75
2021/12/05 18:10:26;;;;;;;3.08;1.08;;;4.60;93.20;;;;;;5062401;28;20029;-75
2021/12/05 18:12:56;;;;;;;1.98;0.55;;;4.90;92.90;;;;;;5045087;28;20017;-75
2021/12/05 18:15:27;;;;;;;3.17;1.30;;;4.60;93.20;;;;;;5053184;28;20028;-75
2021/12/05 18:17:55;;;;;;;3.53;1.23;;;4.50;93.60;;;;;;5045430;28;20450;-75
2021/12/05 18:20:25;;;;;;;2.60;1.30;;;4.60;93.40;;;;;;5050864;28;20075;-75
2021/12/05 18:22:54;;;;;;;2.35;0.90;;;4.40;93.50;;;;;;5057633;28;20025;-75
2021/12/05 18:25:20;;;;;;;3.30;1.23;;;4.50;93.40;;;;;;5058160;28;20090;-75
2021/12/05 18:27:45;;;;;;;2.03;0.82;;;4.60;93.30;;;;;;5054835;28;20033;-76
2021/12/05 18:30:14;;;;;;;2.47;1.00;;;4.90;93.10;;;;;;5055247;28;20612;-75
2021/12/05 18:32:40;;;;;;;3.42;1.40;;;4.60;93.30;;;;;;5059972;28;20040;-75
2021/12/05 18:35:07;;;;;;;5.05;1.02;;;4.80;93.30;;;;;;5069289;28;20041;-75
2021/12/05 18:37:33;;;;;;;1.75;0.90;;;4.70;93.10;;;;;;5067093;28;20036;-75
2021/12/05 18:39:59;;;;;;;2.63;1.05;;;4.30;93.80;;;;;;5069034;28;20398;-75
2021/12/05 18:42:25;;;;;;;2.35;0.88;;;4.60;93.50;;;;;;5063630;28;20075;-75